sensor_id;sensor_type;location;lat;lon;timestamp;pressure;altitude;pressure_sealevel;temperature;humidity
51289;BME280;37372;52.294;5.152;2023-03-22T00:00:26;100882.31;;;8.27;79.77
51289;BME280;37372;52.294;5.152;2023-03-22T00:02:54;100874.53;;;8.30;79.96
51289;BME280;37372;52.294;5.152;2023-03-22T00:05:22;100883.38;;;8.32;79.87
51289;BME280;37372;52.294;5.152;2023-03-22T00:07:48;100874.31;;;8.32;80.12
51289;BME280;37372;52.294;5.152;2023-03-22T00:10:19;100877.69;;;8.40;79.46
51289;BME280;37372;52.294;5.152;2023-03-22T00:13:11;100864.22;;;8.32;79.79
51289;BME280;37372;52.294;5.152;2023-03-22T00:15:37;100858.97;;;8.24;80.07
51289;BME280;37372;52.294;5.152;2023-03-22T00:18:03;100858.97;;;8.24;79.96
51289;BME280;37372;52.294;5.152;2023-03-22T00:20:36;100855.19;;;8.32;79.38
51289;BME280;37372;52.294;5.152;2023-03-22T00:23:03;100860.25;;;8.28;79.81
51289;BME280;37372;52.294;5.152;2023-03-22T00:25:33;100862.34;;;8.26;79.81
51289;BME280;37372;52.294;5.152;2023-03-22T00:27:58;100850.56;;;8.32;79.63
51289;BME280;37372;52.294;5.152;2023-03-22T00:30:24;100850.16;;;8.35;79.47
51289;BME280;37372;52.294;5.152;2023-03-22T00:32:52;100843.63;;;8.30;79.75
51289;BME280;37372;52.294;5.152;2023-03-22T00:35:18;100837.75;;;8.33;79.74
51289;BME280;37372;52.294;5.152;2023-03-22T00:37:44;100831.66;;;8.31;79.95
51289;BME280;37372;52.294;5.152;2023-03-22T00:40:13;100831.84;;;8.29;79.88
51289;BME280;37372;52.294;5.152;2023-03-22T00:42:40;100836.69;;;8.34;79.72
51289;BME280;37372;52.294;5.152;2023-03-22T00:45:08;100841.09;;;8.41;79.16
51289;BME280;37372;52.294;5.152;2023-03-22T00:47:47;100831.63;;;8.44;79.02
51289;BME280;37372;52.294;5.152;2023-03-22T00:50:12;100818.59;;;8.39;79.56
51289;BME280;37372;52.294;5.152;2023-03-22T00:52:37;100823.84;;;8.41;79.77
51289;BME280;37372;52.294;5.152;2023-03-22T00:55:06;100816.66;;;8.53;78.93
51289;BME280;37372;52.294;5.152;2023-03-22T01:00:17;100818.78;;;8.51;78.68
51289;BME280;37372;52.294;5.152;2023-03-22T01:02:54;100808.22;;;8.55;78.44
51289;BME280;37372;52.294;5.152;2023-03-22T01:05:32;100798.16;;;8.49;78.89
51289;BME280;37372;52.294;5.152;2023-03-22T01:08:05;100803.59;;;8.55;79.16
51289;BME280;37372;52.294;5.152;2023-03-22T01:10:42;100794.56;;;8.48;78.83
51289;BME280;37372;52.294;5.152;2023-03-22T01:13:34;100796.47;;;8.48;78.81
51289;BME280;37372;52.294;5.152;2023-03-22T01:16:05;100788.28;;;8.48;78.58
51289;BME280;37372;52.294;5.152;2023-03-22T01:18:31;100792.91;;;8.47;78.34
51289;BME280;37372;52.294;5.152;2023-03-22T01:20:58;100778.41;;;8.47;78.65
51289;BME280;37372;52.294;5.152;2023-03-22T01:23:23;100780.50;;;8.51;78.19
51289;BME280;37372;52.294;5.152;2023-03-22T01:28:39;100765.25;;;8.62;77.49
51289;BME280;37372;52.294;5.152;2023-03-22T01:31:05;100769.91;;;8.61;77.23
51289;BME280;37372;52.294;5.152;2023-03-22T01:33:31;100762.16;;;8.58;77.54
51289;BME280;37372;52.294;5.152;2023-03-22T01:36:09;100757.25;;;8.67;77.53
51289;BME280;37372;52.294;5.152;2023-03-22T01:38:35;100749.09;;;8.60;77.02
51289;BME280;37372;52.294;5.152;2023-03-22T01:41:00;100741.94;;;8.59;76.93
51289;BME280;37372;52.294;5.152;2023-03-22T01:43:36;100738.75;;;8.62;76.91
51289;BME280;37372;52.294;5.152;2023-03-22T01:46:25;100740.59;;;8.68;76.24
51289;BME280;37372;52.294;5.152;2023-03-22T01:48:51;100723.25;;;8.81;75.83
51289;BME280;37372;52.294;5.152;2023-03-22T01:51:25;100730.91;;;8.73;75.77
51289;BME280;37372;52.294;5.152;2023-03-22T01:53:54;100721.69;;;8.67;76.34
51289;BME280;37372;52.294;5.152;2023-03-22T01:56:25;100725.09;;;8.62;76.27
51289;BME280;37372;52.294;5.152;2023-03-22T01:58:53;100719.84;;;8.61;75.83
51289;BME280;37372;52.294;5.152;2023-03-22T02:01:22;100710.81;;;8.60;75.91
51289;BME280;37372;52.294;5.152;2023-03-22T02:07:10;100697.47;;;8.46;76.68
51289;BME280;37372;52.294;5.152;2023-03-22T02:09:41;100689.03;;;8.47;76.87
51289;BME280;37372;52.294;5.152;2023-03-22T02:13:08;100692.81;;;8.46;76.65
51289;BME280;37372;52.294;5.152;2023-03-22T02:30:32;100657.41;;;8.58;76.90
51289;BME280;37372;52.294;5.152;2023-03-22T02:35:48;100655.94;;;8.55;76.45
51289;BME280;37372;52.294;5.152;2023-03-22T02:41:45;100650.94;;;8.52;77.00
51289;BME280;37372;52.294;5.152;2023-03-22T02:47:27;100638.47;;;8.56;77.43
51289;BME280;37372;52.294;5.152;2023-03-22T02:50:27;100640.38;;;8.56;77.86
51289;BME280;37372;52.294;5.152;2023-03-22T02:56:06;100635.53;;;8.58;78.75
51289;BME280;37372;52.294;5.152;2023-03-22T02:58:38;100622.88;;;8.63;78.31
51289;BME280;37372;52.294;5.152;2023-03-22T03:01:20;100624.31;;;8.66;78.89
51289;BME280;37372;52.294;5.152;2023-03-22T03:04:16;100619.03;;;8.71;78.74
51289;BME280;37372;52.294;5.152;2023-03-22T03:06:53;100620.09;;;8.70;79.05
51289;BME280;37372;52.294;5.152;2023-03-22T03:09:28;100625.94;;;8.74;79.54
51289;BME280;37372;52.294;5.152;2023-03-22T03:11:54;100631.97;;;8.82;79.39
51289;BME280;37372;52.294;5.152;2023-03-22T03:14:31;100620.03;;;8.77;80.13
51289;BME280;37372;52.294;5.152;2023-03-22T03:17:15;100618.31;;;8.76;80.32
51289;BME280;37372;52.294;5.152;2023-03-22T03:23:27;100619.50;;;8.86;80.30
51289;BME280;37372;52.294;5.152;2023-03-22T03:26:02;100616.00;;;8.79;80.56
51289;BME280;37372;52.294;5.152;2023-03-22T03:32:00;100624.78;;;8.81;80.38
51289;BME280;37372;52.294;5.152;2023-03-22T03:37:38;100604.88;;;8.74;81.02
51289;BME280;37372;52.294;5.152;2023-03-22T03:40:16;100607.56;;;8.81;81.06
51289;BME280;37372;52.294;5.152;2023-03-22T03:42:53;100609.44;;;8.80;80.91
51289;BME280;37372;52.294;5.152;2023-03-22T03:45:23;100601.66;;;8.84;80.85
51289;BME280;37372;52.294;5.152;2023-03-22T03:47:56;100613.84;;;8.81;80.92
51289;BME280;37372;52.294;5.152;2023-03-22T03:50:33;100610.38;;;8.92;80.46
51289;BME280;37372;52.294;5.152;2023-03-22T03:52:59;100611.28;;;8.86;80.80
51289;BME280;37372;52.294;5.152;2023-03-22T03:55:30;100612.28;;;8.92;80.97
51289;BME280;37372;52.294;5.152;2023-03-22T03:57:56;100606.59;;;8.93;80.41
51289;BME280;37372;52.294;5.152;2023-03-22T04:00:22;100608.72;;;8.91;80.90
51289;BME280;37372;52.294;5.152;2023-03-22T04:02:54;100604.75;;;8.87;80.95
51289;BME280;37372;52.294;5.152;2023-03-22T04:05:22;100604.97;;;8.86;81.04
51289;BME280;37372;52.294;5.152;2023-03-22T04:07:58;100600.34;;;8.86;81.29
51289;BME280;37372;52.294;5.152;2023-03-22T04:10:23;100612.13;;;8.87;80.93
51289;BME280;37372;52.294;5.152;2023-03-22T04:13:06;100607.94;;;8.84;81.32
51289;BME280;37372;52.294;5.152;2023-03-22T04:16:00;100601.50;;;8.97;80.91
51289;BME280;37372;52.294;5.152;2023-03-22T04:18:35;100602.00;;;8.87;81.26
51289;BME280;37372;52.294;5.152;2023-03-22T04:21:01;100599.75;;;8.84;81.53
51289;BME280;37372;52.294;5.152;2023-03-22T04:23:27;100599.16;;;8.82;81.39
51289;BME280;37372;52.294;5.152;2023-03-22T04:25:53;100597.91;;;8.78;81.27
51289;BME280;37372;52.294;5.152;2023-03-22T04:28:29;100599.16;;;8.82;81.36
51289;BME280;37372;52.294;5.152;2023-03-22T04:31:16;100593.72;;;8.76;81.79
51289;BME280;37372;52.294;5.152;2023-03-22T04:33:42;100576.41;;;8.82;81.60
51289;BME280;37372;52.294;5.152;2023-03-22T04:36:25;100583.16;;;8.79;81.55
51289;BME280;37372;52.294;5.152;2023-03-22T04:39:08;100595.84;;;8.74;81.72
51289;BME280;37372;52.294;5.152;2023-03-22T04:42:04;100591.13;;;8.81;81.75
51289;BME280;37372;52.294;5.152;2023-03-22T04:44:36;100578.28;;;8.81;81.97
51289;BME280;37372;52.294;5.152;2023-03-22T04:47:12;100576.41;;;8.82;81.47
51289;BME280;37372;52.294;5.152;2023-03-22T04:49:37;100577.94;;;8.78;81.92
51289;BME280;37372;52.294;5.152;2023-03-22T04:52:06;100569.19;;;8.87;81.31
51289;BME280;37372;52.294;5.152;2023-03-22T04:54:31;100569.19;;;8.87;81.22
51289;BME280;37372;52.294;5.152;2023-03-22T04:57:06;100563.72;;;8.87;81.36
51289;BME280;37372;52.294;5.152;2023-03-22T04:59:31;100560.44;;;8.79;81.48
51289;BME280;37372;52.294;5.152;2023-03-22T05:01:57;100558.56;;;8.79;81.38
51289;BME280;37372;52.294;5.152;2023-03-22T05:04:22;100555.97;;;8.84;81.35
51289;BME280;37372;52.294;5.152;2023-03-22T05:06:47;100551.78;;;8.82;81.19
51289;BME280;37372;52.294;5.152;2023-03-22T05:09:13;100555.38;;;8.82;81.64
51289;BME280;37372;52.294;5.152;2023-03-22T05:11:39;100552.78;;;8.87;81.20
51289;BME280;37372;52.294;5.152;2023-03-22T05:14:07;100547.53;;;8.86;80.54
51289;BME280;37372;52.294;5.152;2023-03-22T05:16:35;100547.53;;;8.86;81.03
51289;BME280;37372;52.294;5.152;2023-03-22T05:19:14;100555.59;;;8.81;80.92
51289;BME280;37372;52.294;5.152;2023-03-22T05:21:46;100554.31;;;8.83;81.11
51289;BME280;37372;52.294;5.152;2023-03-22T05:24:12;100546.09;;;8.83;81.18
51289;BME280;37372;52.294;5.152;2023-03-22T05:26:44;100546.09;;;8.83;81.01
51289;BME280;37372;52.294;5.152;2023-03-22T05:29:24;100551.88;;;8.93;80.24
51289;BME280;37372;52.294;5.152;2023-03-22T05:31:53;100543.38;;;9.02;79.87
51289;BME280;37372;52.294;5.152;2023-03-22T05:34:22;100534.31;;;9.01;79.74
51289;BME280;37372;52.294;5.152;2023-03-22T05:36:54;100547.56;;;9.04;79.66
51289;BME280;37372;52.294;5.152;2023-03-22T05:39:23;100539.41;;;8.98;80.22
51289;BME280;37372;52.294;5.152;2023-03-22T05:41:48;100536.44;;;8.99;80.00
51289;BME280;37372;52.294;5.152;2023-03-22T05:44:21;100528.56;;;8.91;80.17
51289;BME280;37372;52.294;5.152;2023-03-22T05:46:52;100529.75;;;8.95;80.31
51289;BME280;37372;52.294;5.152;2023-03-22T05:49:17;100519.03;;;8.93;80.01
51289;BME280;37372;52.294;5.152;2023-03-22T05:51:43;100520.72;;;8.94;80.13
51289;BME280;37372;52.294;5.152;2023-03-22T05:54:08;100517.59;;;9.09;78.91
51289;BME280;37372;52.294;5.152;2023-03-22T05:56:43;100520.19;;;9.04;79.07
51289;BME280;37372;52.294;5.152;2023-03-22T05:59:08;100519.78;;;9.01;78.97
51289;BME280;37372;52.294;5.152;2023-03-22T06:01:34;100516.47;;;8.99;79.27
51289;BME280;37372;52.294;5.152;2023-03-22T06:04:03;100512.66;;;9.00;79.33
51289;BME280;37372;52.294;5.152;2023-03-22T06:06:40;100512.81;;;9.05;79.05
51289;BME280;37372;52.294;5.152;2023-03-22T06:09:06;100516.38;;;9.05;78.84
51289;BME280;37372;52.294;5.152;2023-03-22T06:11:31;100510.31;;;9.03;78.63
51289;BME280;37372;52.294;5.152;2023-03-22T06:14:03;100509.16;;;9.11;78.31
51289;BME280;37372;52.294;5.152;2023-03-22T06:16:33;100522.25;;;9.09;78.33
51289;BME280;37372;52.294;5.152;2023-03-22T06:18:59;100519.44;;;9.15;78.26
51289;BME280;37372;52.294;5.152;2023-03-22T06:21:33;100528.31;;;9.11;78.28
51289;BME280;37372;52.294;5.152;2023-03-22T06:23:59;100528.75;;;9.26;77.60
51289;BME280;37372;52.294;5.152;2023-03-22T06:26:24;100514.78;;;9.34;76.99
51289;BME280;37372;52.294;5.152;2023-03-22T06:31:47;100523.84;;;9.46;76.33
51289;BME280;37372;52.294;5.152;2023-03-22T06:34:12;100526.00;;;9.44;77.00
51289;BME280;37372;52.294;5.152;2023-03-22T06:36:38;100524.16;;;9.38;76.55
51289;BME280;37372;52.294;5.152;2023-03-22T06:39:04;100520.81;;;9.55;76.03
51289;BME280;37372;52.294;5.152;2023-03-22T06:41:29;100524.13;;;9.57;75.46
51289;BME280;37372;52.294;5.152;2023-03-22T06:43:55;100529.28;;;9.65;75.39
51289;BME280;37372;52.294;5.152;2023-03-22T06:46:23;100523.72;;;9.71;75.25
51289;BME280;37372;52.294;5.152;2023-03-22T06:49:09;100521.34;;;9.75;75.35
51289;BME280;37372;52.294;5.152;2023-03-22T06:51:35;100525.50;;;9.77;74.90
51289;BME280;37372;52.294;5.152;2023-03-22T06:54:01;100516.31;;;9.72;75.00
51289;BME280;37372;52.294;5.152;2023-03-22T06:56:26;100513.63;;;9.84;74.28
51289;BME280;37372;52.294;5.152;2023-03-22T06:59:00;100516.13;;;9.85;74.04
51289;BME280;37372;52.294;5.152;2023-03-22T07:01:25;100518.75;;;9.80;74.44
51289;BME280;37372;52.294;5.152;2023-03-22T07:03:53;100516.47;;;9.77;74.32
51289;BME280;37372;52.294;5.152;2023-03-22T07:06:22;100526.94;;;9.68;74.57
51289;BME280;37372;52.294;5.152;2023-03-22T07:08:57;100529.44;;;9.70;74.53
51289;BME280;37372;52.294;5.152;2023-03-22T07:11:22;100520.97;;;9.71;74.81
51289;BME280;37372;52.294;5.152;2023-03-22T07:13:57;100528.00;;;9.67;74.33
51289;BME280;37372;52.294;5.152;2023-03-22T07:16:22;100522.72;;;9.66;74.52
51289;BME280;37372;52.294;5.152;2023-03-22T07:18:56;100521.78;;;9.72;74.19
51289;BME280;37372;52.294;5.152;2023-03-22T07:21:22;100527.38;;;9.65;74.45
51289;BME280;37372;52.294;5.152;2023-03-22T07:23:47;100515.97;;;9.68;73.96
51289;BME280;37372;52.294;5.152;2023-03-22T07:26:12;100513.53;;;9.90;73.64
51289;BME280;37372;52.294;5.152;2023-03-22T07:28:38;100509.50;;;10.04;73.13
51289;BME280;37372;52.294;5.152;2023-03-22T07:31:21;100508.09;;;10.14;72.29
51289;BME280;37372;52.294;5.152;2023-03-22T07:33:46;100505.63;;;10.24;72.10
51289;BME280;37372;52.294;5.152;2023-03-22T07:36:31;100503.25;;;10.27;72.22
51289;BME280;37372;52.294;5.152;2023-03-22T07:39:00;100506.88;;;10.10;73.06
51289;BME280;37372;52.294;5.152;2023-03-22T07:41:25;100498.53;;;10.04;72.57
51289;BME280;37372;52.294;5.152;2023-03-22T07:43:58;100502.72;;;10.07;72.55
51289;BME280;37372;52.294;5.152;2023-03-22T07:46:24;100496.66;;;10.05;72.84
51289;BME280;37372;52.294;5.152;2023-03-22T07:48:52;100494.03;;;10.22;72.27
51289;BME280;37372;52.294;5.152;2023-03-22T07:51:18;100502.69;;;10.37;71.63
51289;BME280;37372;52.294;5.152;2023-03-22T07:53:43;100495.63;;;10.41;71.63
51289;BME280;37372;52.294;5.152;2023-03-22T07:56:08;100503.97;;;10.58;71.00
51289;BME280;37372;52.294;5.152;2023-03-22T07:58:40;100503.16;;;10.46;71.40
51289;BME280;37372;52.294;5.152;2023-03-22T08:01:20;100510.66;;;10.50;70.81
51289;BME280;37372;52.294;5.152;2023-03-22T08:03:52;100513.16;;;10.52;70.51
51289;BME280;37372;52.294;5.152;2023-03-22T08:06:38;100507.78;;;10.45;71.35
51289;BME280;37372;52.294;5.152;2023-03-22T08:09:07;100523.28;;;10.28;71.43
51289;BME280;37372;52.294;5.152;2023-03-22T08:11:34;100503.25;;;10.39;71.31
51289;BME280;37372;52.294;5.152;2023-03-22T08:14:11;100505.75;;;10.29;71.66
51289;BME280;37372;52.294;5.152;2023-03-22T08:16:37;100506.25;;;10.38;71.17
51289;BME280;37372;52.294;5.152;2023-03-22T08:19:32;100513.03;;;10.35;71.50
51289;BME280;37372;52.294;5.152;2023-03-22T08:22:00;100514.69;;;10.36;71.58
51289;BME280;37372;52.294;5.152;2023-03-22T08:24:42;100512.09;;;10.53;70.90
51289;BME280;37372;52.294;5.152;2023-03-22T08:27:11;100501.56;;;10.73;69.81
51289;BME280;37372;52.294;5.152;2023-03-22T08:29:55;100506.34;;;10.66;71.01
51289;BME280;37372;52.294;5.152;2023-03-22T08:32:20;100508.72;;;10.74;70.95
51289;BME280;37372;52.294;5.152;2023-03-22T08:34:56;100511.13;;;10.82;70.67
51289;BME280;37372;52.294;5.152;2023-03-22T08:37:24;100496.66;;;10.87;70.43
51289;BME280;37372;52.294;5.152;2023-03-22T08:39:49;100510.50;;;10.69;70.55
51289;BME280;37372;52.294;5.152;2023-03-22T08:42:15;100491.69;;;10.61;69.98
51289;BME280;37372;52.294;5.152;2023-03-22T08:44:43;100500.28;;;10.52;70.98
51289;BME280;37372;52.294;5.152;2023-03-22T08:47:10;100512.44;;;10.45;71.98
51289;BME280;37372;52.294;5.152;2023-03-22T08:49:36;100506.72;;;10.46;71.93
51289;BME280;37372;52.294;5.152;2023-03-22T08:52:01;100509.94;;;10.32;72.93
51289;BME280;37372;52.294;5.152;2023-03-22T08:54:26;100509.44;;;10.35;73.02
51289;BME280;37372;52.294;5.152;2023-03-22T08:56:57;100513.84;;;10.24;74.24
51289;BME280;37372;52.294;5.152;2023-03-22T08:59:23;100504.28;;;10.15;75.65
51289;BME280;37372;52.294;5.152;2023-03-22T09:01:54;100511.66;;;10.02;76.60
51289;BME280;37372;52.294;5.152;2023-03-22T09:04:22;100512.94;;;9.88;76.78
51289;BME280;37372;52.294;5.152;2023-03-22T09:06:48;100510.53;;;9.80;77.25
51289;BME280;37372;52.294;5.152;2023-03-22T09:09:14;100518.56;;;9.63;78.05
51289;BME280;37372;52.294;5.152;2023-03-22T09:12:01;100506.56;;;9.76;78.44
51289;BME280;37372;52.294;5.152;2023-03-22T09:14:27;100512.31;;;9.74;78.58
51289;BME280;37372;52.294;5.152;2023-03-22T09:16:52;100513.81;;;9.70;78.30
51289;BME280;37372;52.294;5.152;2023-03-22T09:19:18;100496.94;;;9.73;78.48
51289;BME280;37372;52.294;5.152;2023-03-22T09:21:45;100506.28;;;9.66;78.59
51289;BME280;37372;52.294;5.152;2023-03-22T09:24:10;100503.19;;;9.62;79.08
51289;BME280;37372;52.294;5.152;2023-03-22T09:26:54;100500.09;;;9.59;79.41
51289;BME280;37372;52.294;5.152;2023-03-22T09:29:31;100509.59;;;9.56;79.24
51289;BME280;37372;52.294;5.152;2023-03-22T09:32:00;100509.72;;;9.49;79.36
51289;BME280;37372;52.294;5.152;2023-03-22T09:34:26;100498.41;;;9.58;79.14
51289;BME280;37372;52.294;5.152;2023-03-22T09:36:52;100510.81;;;9.60;79.41
51289;BME280;37372;52.294;5.152;2023-03-22T09:39:27;100504.28;;;9.61;79.50
51289;BME280;37372;52.294;5.152;2023-03-22T09:42:02;100497.22;;;9.54;79.57
51289;BME280;37372;52.294;5.152;2023-03-22T09:44:33;100499.69;;;9.43;80.23
51289;BME280;37372;52.294;5.152;2023-03-22T09:47:04;100495.53;;;9.53;80.16
51289;BME280;37372;52.294;5.152;2023-03-22T09:49:35;100499.63;;;9.62;80.38
51289;BME280;37372;52.294;5.152;2023-03-22T09:52:10;100501.44;;;9.68;79.82
51289;BME280;37372;52.294;5.152;2023-03-22T09:54:53;100510.69;;;9.55;81.00
51289;BME280;37372;52.294;5.152;2023-03-22T10:16:49;100497.88;;;9.67;81.13
51289;BME280;37372;52.294;5.152;2023-03-22T10:22:11;100513.81;;;9.70;80.98
51289;BME280;37372;52.294;5.152;2023-03-22T10:24:41;100506.50;;;9.53;81.74
51289;BME280;37372;52.294;5.152;2023-03-22T10:27:17;100504.81;;;9.52;81.60
51289;BME280;37372;52.294;5.152;2023-03-22T10:30:38;100499.53;;;9.68;81.42
51289;BME280;37372;52.294;5.152;2023-03-22T10:36:16;100503.78;;;9.64;82.29
51289;BME280;37372;52.294;5.152;2023-03-22T10:38:48;100513.00;;;9.70;82.42
51289;BME280;37372;52.294;5.152;2023-03-22T10:41:20;100509.66;;;9.68;81.99
51289;BME280;37372;52.294;5.152;2023-03-22T10:43:51;100510.81;;;9.60;81.96
51289;BME280;37372;52.294;5.152;2023-03-22T10:46:25;100500.22;;;9.64;82.05
51289;BME280;37372;52.294;5.152;2023-03-22T10:48:57;100488.09;;;9.71;82.20
51289;BME280;37372;52.294;5.152;2023-03-22T10:51:53;100490.41;;;9.86;81.97
51289;BME280;37372;52.294;5.152;2023-03-22T10:54:24;100482.19;;;9.86;82.45
51289;BME280;37372;52.294;5.152;2023-03-22T10:56:55;100479.47;;;9.86;81.96
51289;BME280;37372;52.294;5.152;2023-03-22T10:59:54;100468.75;;;9.96;82.00
51289;BME280;37372;52.294;5.152;2023-03-22T11:02:57;100466.38;;;10.00;81.51
51289;BME280;37372;52.294;5.152;2023-03-22T11:05:26;100487.09;;;10.08;79.73
51289;BME280;37372;52.294;5.152;2023-03-22T11:07:56;100483.31;;;10.20;80.38
51289;BME280;37372;52.294;5.152;2023-03-22T11:10:27;100489.38;;;9.99;80.71
51289;BME280;37372;52.294;5.152;2023-03-22T11:13:09;100495.91;;;9.98;81.02
51289;BME280;37372;52.294;5.152;2023-03-22T11:16:05;100476.97;;;10.08;80.44
51289;BME280;37372;52.294;5.152;2023-03-22T11:18:37;100474.38;;;10.13;81.71
51289;BME280;37372;52.294;5.152;2023-03-22T11:21:35;100476.53;;;10.23;80.77
51289;BME280;37372;52.294;5.152;2023-03-22T11:27:16;100484.53;;;10.48;80.02
51289;BME280;37372;52.294;5.152;2023-03-22T11:30:01;100483.44;;;10.61;79.30
51289;BME280;37372;52.294;5.152;2023-03-22T11:35:57;100491.94;;;10.47;78.73
51289;BME280;37372;52.294;5.152;2023-03-22T11:44:11;100525.31;;;10.44;77.94
51289;BME280;37372;52.294;5.152;2023-03-22T11:46:48;100531.25;;;10.29;79.07
51289;BME280;37372;52.294;5.152;2023-03-22T11:49:37;100528.63;;;10.23;78.41
51289;BME280;37372;52.294;5.152;2023-03-22T11:52:15;100515.53;;;10.25;78.71
51289;BME280;37372;52.294;5.152;2023-03-22T11:54:48;100519.19;;;10.19;78.39
51289;BME280;37372;52.294;5.152;2023-03-22T11:57:28;100514.81;;;10.29;78.31
51289;BME280;37372;52.294;5.152;2023-03-22T12:00:23;100512.91;;;10.30;78.11
51289;BME280;37372;52.294;5.152;2023-03-22T12:03:16;100518.38;;;10.30;78.66
51289;BME280;37372;52.294;5.152;2023-03-22T12:05:54;100517.44;;;10.36;78.21
51289;BME280;37372;52.294;5.152;2023-03-22T12:11:39;100503.97;;;10.35;78.06
51289;BME280;37372;52.294;5.152;2023-03-22T12:17:10;100515.28;;;10.26;78.16
51289;BME280;37372;52.294;5.152;2023-03-22T12:20:02;100510.06;;;10.25;78.29
51289;BME280;37372;52.294;5.152;2023-03-22T12:22:44;100521.38;;;10.28;77.43
51289;BME280;37372;52.294;5.152;2023-03-22T12:25:18;100529.38;;;10.42;77.78
51289;BME280;37372;52.294;5.152;2023-03-22T12:28:16;100519.00;;;10.44;77.58
51289;BME280;37372;52.294;5.152;2023-03-22T12:30:57;100511.59;;;10.33;77.76
51289;BME280;37372;52.294;5.152;2023-03-22T12:33:29;100514.22;;;10.27;78.57
51289;BME280;37372;52.294;5.152;2023-03-22T12:36:02;100513.66;;;10.37;78.92
51289;BME280;37372;52.294;5.152;2023-03-22T12:38:48;100506.25;;;10.38;78.50
51289;BME280;37372;52.294;5.152;2023-03-22T12:41:46;100506.31;;;10.19;79.21
51289;BME280;37372;52.294;5.152;2023-03-22T12:45:00;100496.78;;;10.22;79.60
51289;BME280;37372;52.294;5.152;2023-03-22T12:50:02;100480.38;;;10.34;79.07
51289;BME280;37372;52.294;5.152;2023-03-22T12:52:52;100488.09;;;10.37;79.13
51289;BME280;37372;52.294;5.152;2023-03-22T12:55:38;100488.81;;;10.55;78.25
51289;BME280;37372;52.294;5.152;2023-03-22T12:58:20;100499.31;;;10.47;79.05
51289;BME280;37372;52.294;5.152;2023-03-22T13:03:49;100505.06;;;10.45;78.76
51289;BME280;37372;52.294;5.152;2023-03-22T13:12:30;100502.91;;;10.59;77.78
51289;BME280;37372;52.294;5.152;2023-03-22T13:15:31;100505.16;;;10.39;79.00
51289;BME280;37372;52.294;5.152;2023-03-22T13:18:30;100511.97;;;10.60;77.95
51289;BME280;37372;52.294;5.152;2023-03-22T13:21:17;100503.59;;;10.54;78.65
51289;BME280;37372;52.294;5.152;2023-03-22T13:27:14;100499.06;;;10.60;78.55
51289;BME280;37372;52.294;5.152;2023-03-22T13:29:48;100501.22;;;10.70;77.42
51289;BME280;37372;52.294;5.152;2023-03-22T13:32:30;100498.72;;;10.68;77.46
51289;BME280;37372;52.294;5.152;2023-03-22T13:35:01;100497.66;;;10.57;77.75
51289;BME280;37372;52.294;5.152;2023-03-22T13:37:46;100489.66;;;10.68;77.19
51289;BME280;37372;52.294;5.152;2023-03-22T13:42:46;100492.38;;;10.91;76.58
51289;BME280;37372;52.294;5.152;2023-03-22T13:45:31;100493.94;;;10.75;77.40
51289;BME280;37372;52.294;5.152;2023-03-22T13:51:16;100502.63;;;10.84;77.15
51289;BME280;37372;52.294;5.152;2023-03-22T13:57:00;100503.34;;;10.91;77.55
51289;BME280;37372;52.294;5.152;2023-03-22T14:00:01;100490.09;;;10.88;78.57
51289;BME280;37372;52.294;5.152;2023-03-22T14:02:40;100480.19;;;10.87;78.24
51289;BME280;37372;52.294;5.152;2023-03-22T14:05:13;100482.00;;;10.81;78.89
51289;BME280;37372;52.294;5.152;2023-03-22T14:07:46;100477.81;;;10.79;79.08
51289;BME280;37372;52.294;5.152;2023-03-22T14:10:20;100479.84;;;10.95;78.78
51289;BME280;37372;52.294;5.152;2023-03-22T14:15:49;100470.72;;;11.06;78.82
51289;BME280;37372;52.294;5.152;2023-03-22T14:18:30;100463.44;;;11.00;77.99
51289;BME280;37372;52.294;5.152;2023-03-22T14:20:59;100453.53;;;11.11;77.39
51289;BME280;37372;52.294;5.152;2023-03-22T14:23:50;100448.09;;;11.28;76.96
51289;BME280;37372;52.294;5.152;2023-03-22T14:26:34;100449.75;;;11.29;77.51
51289;BME280;37372;52.294;5.152;2023-03-22T14:29:21;100441.38;;;11.35;76.41
51289;BME280;37372;52.294;5.152;2023-03-22T14:32:02;100439.28;;;11.14;77.50
51289;BME280;37372;52.294;5.152;2023-03-22T14:34:34;100428.41;;;11.19;77.29
51289;BME280;37372;52.294;5.152;2023-03-22T14:37:12;100435.34;;;11.22;76.64
51289;BME280;37372;52.294;5.152;2023-03-22T14:39:43;100422.69;;;11.21;77.15
51289;BME280;37372;52.294;5.152;2023-03-22T14:42:43;100427.78;;;11.29;77.06
51289;BME280;37372;52.294;5.152;2023-03-22T14:45:24;100439.50;;;11.24;76.39
51289;BME280;37372;52.294;5.152;2023-03-22T14:47:52;100442.09;;;11.31;75.96
51289;BME280;37372;52.294;5.152;2023-03-22T14:50:28;100431.63;;;11.28;76.98
51289;BME280;37372;52.294;5.152;2023-03-22T14:52:54;100443.38;;;11.11;77.63
51289;BME280;37372;52.294;5.152;2023-03-22T14:55:32;100441.56;;;11.17;77.29
51289;BME280;37372;52.294;5.152;2023-03-22T14:58:00;100439.22;;;11.09;77.74
51289;BME280;37372;52.294;5.152;2023-03-22T15:00:37;100438.97;;;11.10;77.34
51289;BME280;37372;52.294;5.152;2023-03-22T15:03:07;100433.81;;;11.14;76.98
51289;BME280;37372;52.294;5.152;2023-03-22T15:05:39;100436.38;;;11.04;77.73
51289;BME280;37372;52.294;5.152;2023-03-22T15:10:42;100426.75;;;11.18;77.73
51289;BME280;37372;52.294;5.152;2023-03-22T15:13:10;100432.56;;;11.33;77.02
51289;BME280;37372;52.294;5.152;2023-03-22T15:15:41;100427.94;;;11.22;77.73
51289;BME280;37372;52.294;5.152;2023-03-22T15:18:19;100431.41;;;11.18;78.12
51289;BME280;37372;52.294;5.152;2023-03-22T15:20:47;100421.09;;;11.08;79.01
51289;BME280;37372;52.294;5.152;2023-03-22T15:25:45;100427.59;;;11.19;78.56
51289;BME280;37372;52.294;5.152;2023-03-22T15:28:14;100419.66;;;11.05;79.14
51289;BME280;37372;52.294;5.152;2023-03-22T15:30:47;100426.34;;;10.98;79.51
51289;BME280;37372;52.294;5.152;2023-03-22T15:33:22;100419.94;;;10.92;79.83